クライストチャーチ の空港の天気 - METARとTAF

クライストチャーチ国際空港 ( NZCH / CHC ) - ニュージーランド クライストチャーチ
飛行場実況気象(Metar)
観測時間05/27 04:30 NZST (05/26 16:30 UTC)
風向・風速北北西 2m/s
視程10km以上
天気現象弱い雨
全天の4割程度の雲 雲底高度 2740m
気温9℃
湿度93%
気圧1008hPa
METARNZCH 261630Z AUTO 34004KT 310V010 9999 -RA SCT090/// 09/08 Q1008 NOSIG
過去の天気等 Google飛行場航空写真 Wunderground天気予報

過去48時間のMETAR

飛行場予報(TAF)
発表時間: 5/26 23:02 NZST (5/26 11:02 UTC)
予報対象時間: 27日0時 NZST ~ 28日0時 NZST
風向・風速北東 3m/s
視程10km以上
天気現象弱いしゅう雨
全天の8割程度の雲 雲底高度 1,830m
27日10時 NZST から
風向・風速南西 8m/s
視程10km以上
天気現象弱い雨霧雨
全天の4割程度の雲 雲底高度 210m
全天の8割程度の雲 雲底高度 610m
27日10時 NZST ~ 27日17時 NZST に一時的に
視程6,000m
天気現象雨霧雨
全天の8割程度の雲 雲底高度 210m
27日21時 NZST から
風向・風速南西 3m/s
視程10km以上
全天の8割程度の雲 雲底高度 610m
TAF NZCH 261102Z 2612/2712 04005KT 9999 -SHRA BKN060
FM262200 22015KT 9999 -RADZ SCT007 BKN020
TEMPO 2622/2705 6000 RADZ BKN007
FM270900 22005KT 9999 BKN020